Time;durP1;ratioP1;P1;durP2;ratioP2;P2;SDS_P1;SDS_P2;PMS_P1;PMS_P2;Temp;Humidity;BMP_temperature;BMP_pressure;BME280_temperature;BME280_humidity;BME280_pressure;Samples;Min_cycle;Max_cycle;Signal;HPM_P1;HPM_P2
2023/12/17 00:01:38;;;;;;;27.98;15.40;;;;;;;4.59;100.00;102497.97;5094529;28;20059;-43
2023/12/17 00:04:06;;;;;;;30.30;16.55;;;;;;;4.53;100.00;102502.38;5094091;28;20048;-43
2023/12/17 00:06:37;;;;;;;32.40;15.88;;;;;;;4.46;100.00;102501.50;5093968;28;20044;-42
2023/12/17 00:09:06;;;;;;;31.77;17.33;;;;;;;4.38;100.00;102503.25;5095853;28;20066;-43
2023/12/17 00:11:39;;;;;;;32.17;16.33;;;;;;;4.34;100.00;102496.19;5114691;28;20369;-42
2023/12/17 00:14:11;;;;;;;30.45;16.58;;;;;;;4.35;100.00;102505.91;5073821;28;20139;-43
2023/12/17 00:16:39;;;;;;;29.80;16.30;;;;;;;4.34;100.00;102504.13;5075073;28;20068;-42
2023/12/17 00:19:08;;;;;;;30.50;16.67;;;;;;;4.29;100.00;102500.59;5114121;28;20047;-42
2023/12/17 00:21:37;;;;;;;34.47;17.00;;;;;;;4.17;100.00;102492.66;5101901;27;20044;-43
2023/12/17 00:24:06;;;;;;;33.53;17.17;;;;;;;4.08;100.00;102495.28;5093955;28;20056;-43
2023/12/17 00:26:34;;;;;;;30.52;16.80;;;;;;;4.05;100.00;102497.91;5093807;28;20143;-41
2023/12/17 00:29:02;;;;;;;33.45;16.02;;;;;;;4.02;100.00;102491.75;5096933;28;20134;-42
2023/12/17 00:31:32;;;;;;;28.45;16.30;;;;;;;4.02;100.00;102490.84;5114086;27;20116;-43
2023/12/17 00:34:01;;;;;;;31.55;16.80;;;;;;;4.01;100.00;102489.97;5114324;28;20051;-42
2023/12/17 00:36:30;;;;;;;30.85;17.60;;;;;;;4.01;100.00;102495.25;5114198;28;20047;-42
2023/12/17 00:38:58;;;;;;;31.75;17.25;;;;;;;3.98;100.00;102499.66;5113899;28;20517;-40
2023/12/17 00:41:26;;;;;;;32.85;17.50;;;;;;;4.06;100.00;102502.34;5113526;28;20066;-42
2023/12/17 00:43:55;;;;;;;30.13;16.85;;;;;;;4.00;100.00;102493.50;5095320;28;20048;-42
2023/12/17 00:46:23;;;;;;;33.67;17.98;;;;;;;3.98;100.00;102487.34;5093207;28;20088;-42
2023/12/17 00:48:53;;;;;;;33.30;17.15;;;;;;;4.00;100.00;102482.06;5093503;28;20044;-42
2023/12/17 00:51:21;;;;;;;32.83;16.48;;;;;;;4.02;100.00;102478.53;5105411;28;20046;-42
2023/12/17 00:53:49;;;;;;;31.90;17.52;;;;;;;3.94;100.00;102485.53;5113716;28;20058;-43
2023/12/17 00:56:18;;;;;;;31.30;18.20;;;;;;;3.92;100.00;102489.06;5099221;28;20523;-42
2023/12/17 00:58:46;;;;;;;31.98;16.05;;;;;;;3.94;100.00;102498.75;5113555;28;20090;-42
2023/12/17 01:01:15;;;;;;;31.02;16.13;;;;;;;4.11;100.00;102500.56;5113519;28;20462;-42
2023/12/17 01:03:43;;;;;;;30.92;15.85;;;;;;;4.27;100.00;102500.59;5112625;28;20138;-41
2023/12/17 01:06:13;;;;;;;29.25;15.75;;;;;;;4.32;100.00;102508.53;5092994;28;20102;-42
2023/12/17 01:08:42;;;;;;;31.08;15.20;;;;;;;4.34;100.00;102509.41;5107794;28;20052;-44
2023/12/17 01:11:10;;;;;;;30.42;17.27;;;;;;;4.40;100.00;102512.06;5113526;28;20055;-42
2023/12/17 01:13:38;;;;;;;31.45;16.50;;;;;;;4.36;100.00;102522.63;5113394;28;20123;-43
2023/12/17 01:16:08;;;;;;;35.72;17.52;;;;;;;4.28;100.00;102512.94;5113349;28;20054;-43
2023/12/17 01:18:36;;;;;;;32.40;17.17;;;;;;;4.27;100.00;102508.53;5111949;28;20085;-42
2023/12/17 01:21:06;;;;;;;33.40;17.98;;;;;;;4.22;100.00;102504.09;5114480;28;20048;-43
2023/12/17 01:23:38;;;;;;;34.80;19.08;;;;;;;4.16;100.00;102493.53;5116372;28;20046;-42
2023/12/17 01:26:07;;;;;;;30.17;18.23;;;;;;;4.10;100.00;102488.25;5112652;28;20556;-42
2023/12/17 01:28:35;;;;;;;34.97;19.73;;;;;;;3.99;100.00;102475.91;5113193;28;20079;-42
2023/12/17 01:31:04;;;;;;;33.92;18.85;;;;;;;3.98;100.00;102484.69;5094970;28;20573;-41
2023/12/17 01:33:32;;;;;;;35.25;18.73;;;;;;;3.95;100.00;102486.44;5092580;28;20079;-43
2023/12/17 01:36:00;;;;;;;34.03;18.35;;;;;;;4.05;100.00;102484.69;5099897;28;20119;-41
2023/12/17 01:38:29;;;;;;;31.88;16.67;;;;;;;4.09;100.00;102486.47;5105508;28;20378;-42
2023/12/17 01:40:59;;;;;;;26.55;14.50;;;;;;;4.14;100.00;102496.16;5092662;28;20044;-41
2023/12/17 01:43:28;;;;;;;27.45;14.98;;;;;;;4.25;100.00;102501.50;5092585;28;20147;-43
2023/12/17 01:45:57;;;;;;;28.70;14.73;;;;;;;4.28;100.00;102505.00;5093062;28;20485;-42
2023/12/17 01:48:27;;;;;;;22.92;13.48;;;;;;;4.31;100.00;102493.56;5093362;28;20048;-42
2023/12/17 01:50:56;;;;;;;31.13;13.90;;;;;;;4.31;100.00;102494.44;5109489;28;20047;-42
2023/12/17 01:53:25;;;;;;;26.90;14.23;;;;;;;4.34;100.00;102498.81;5112317;28;20048;-42
2023/12/17 01:55:54;;;;;;;30.17;14.23;;;;;;;4.30;100.00;102497.06;5112437;27;20138;-42
2023/12/17 01:58:24;;;;;;;24.48;12.95;;;;;;;4.33;100.00;102491.78;5112640;28;20139;-42
2023/12/17 02:00:53;;;;;;;26.83;13.32;;;;;;;4.39;100.00;102502.38;5112513;28;20134;-42
2023/12/17 02:03:21;;;;;;;24.52;12.48;;;;;;;4.40;100.00;102509.41;5112630;28;20048;-41
2023/12/17 02:05:51;;;;;;;24.98;12.50;;;;;;;4.47;100.00;102513.84;5100108;28;20105;-42
2023/12/17 02:08:20;;;;;;;25.25;12.35;;;;;;;4.50;100.00;102505.91;5108424;28;20044;-42
2023/12/17 02:10:48;;;;;;;24.77;12.90;;;;;;;4.57;100.00;102509.44;5091845;28;20434;-43
2023/12/17 02:13:17;;;;;;;24.17;13.10;;;;;;;4.58;100.00;102500.63;5092590;28;20092;-42
2023/12/17 02:15:47;;;;;;;23.38;12.70;;;;;;;4.66;100.00;102495.34;5092247;28;20047;-42
2023/12/17 02:18:15;;;;;;;22.20;12.70;;;;;;;4.72;100.00;102484.75;5108538;28;20068;-42
2023/12/17 02:20:44;;;;;;;21.45;12.98;;;;;;;4.76;100.00;102487.41;5097086;28;20044;-42
2023/12/17 02:23:14;;;;;;;22.85;12.48;;;;;;;4.76;100.00;102486.53;5091637;28;20083;-43
2023/12/17 02:25:44;;;;;;;21.27;11.98;;;;;;;4.82;100.00;102484.75;5091554;28;20052;-42
2023/12/17 02:28:12;;;;;;;23.98;11.73;;;;;;;4.87;100.00;102484.75;5091339;28;20564;-43
2023/12/17 02:30:40;;;;;;;22.13;12.43;;;;;;;4.84;100.00;102484.75;5091489;28;20086;-43
2023/12/17 02:33:08;;;;;;;24.70;12.05;;;;;;;4.84;100.00;102496.22;5108864;28;20587;-41
2023/12/17 02:35:37;;;;;;;23.42;12.68;;;;;;;4.88;100.00;102489.16;5112009;28;20404;-41
2023/12/17 02:38:05;;;;;;;21.65;12.25;;;;;;;4.88;100.00;102489.16;5111889;28;20172;-42
2023/12/17 02:40:35;;;;;;;24.00;12.52;;;;;;;4.87;100.00;102479.47;5111596;28;20043;-42
2023/12/17 02:43:03;;;;;;;27.48;12.73;;;;;;;4.94;100.00;102481.22;5104753;28;20515;-42
2023/12/17 02:45:32;;;;;;;22.52;12.65;;;;;;;4.91;100.00;102480.31;5091012;28;20047;-42
2023/12/17 02:48:00;;;;;;;25.92;13.38;;;;;;;4.96;100.00;102484.75;5106995;28;20047;-43
2023/12/17 02:50:29;;;;;;;23.85;12.77;;;;;;;4.99;100.00;102479.44;5105111;28;20044;-41
2023/12/17 02:52:57;;;;;;;22.88;12.77;;;;;;;4.99;100.00;102463.56;5103224;28;20081;-44
2023/12/17 02:55:25;;;;;;;23.25;12.77;;;;;;;5.03;100.00;102461.81;5091161;28;20051;-42
2023/12/17 02:57:55;;;;;;;23.75;13.18;;;;;;;5.02;100.00;102462.66;5091011;28;20048;-45
2023/12/17 03:00:26;;;;;;;24.90;13.10;;;;;;;4.95;100.00;102461.81;5091239;28;20047;-41
2023/12/17 03:02:54;;;;;;;26.70;13.55;;;;;;;4.98;100.00;102451.22;5091060;28;20059;-42
2023/12/17 03:05:23;;;;;;;25.00;13.45;;;;;;;4.98;100.00;102448.59;5090007;28;20044;-41
2023/12/17 03:07:51;;;;;;;27.90;14.30;;;;;;;5.01;100.00;102434.47;5091012;28;20404;-43
2023/12/17 03:10:19;;;;;;;24.48;13.13;;;;;;;5.00;100.00;102444.16;5091003;28;20052;-43
2023/12/17 03:12:48;;;;;;;26.00;13.38;;;;;;;4.97;100.00;102449.47;5090984;28;20441;-43
2023/12/17 03:15:20;;;;;;;25.00;13.35;;;;;;;4.94;100.00;102454.78;5090879;28;20131;-42
2023/12/17 03:17:48;;;;;;;25.95;13.38;;;;;;;4.92;100.00;102451.22;5090921;28;20048;-42
2023/12/17 03:20:17;;;;;;;26.83;13.65;;;;;;;4.98;100.00;102461.81;5096082;28;20101;-42
2023/12/17 03:22:45;;;;;;;26.35;13.57;;;;;;;5.02;100.00;102453.00;5104392;28;20048;-43
2023/12/17 03:25:14;;;;;;;24.10;13.23;;;;;;;5.04;100.00;102456.50;5110873;28;20056;-41
2023/12/17 03:27:47;;;;;;;25.40;13.60;;;;;;;5.06;100.00;102449.44;5111341;28;20082;-42
2023/12/17 03:30:16;;;;;;;26.38;13.30;;;;;;;5.04;100.00;102456.50;5100042;28;20044;-42
2023/12/17 03:32:45;;;;;;;27.65;13.77;;;;;;;5.04;100.00;102450.34;5090724;28;20040;-43
2023/12/17 03:35:14;;;;;;;28.80;14.15;;;;;;;5.07;100.00;102450.31;5090711;28;20052;-43
2023/12/17 03:37:43;;;;;;;24.13;13.25;;;;;;;5.07;100.00;102450.31;5099632;28;20075;-41
2023/12/17 03:40:13;;;;;;;25.25;13.35;;;;;;;5.01;100.00;102456.50;5111287;28;20047;-41
2023/12/17 03:42:41;;;;;;;26.58;14.52;;;;;;;5.03;100.00;102456.53;5111074;28;20055;-43
2023/12/17 03:45:10;;;;;;;25.08;14.27;;;;;;;5.03;100.00;102460.06;5111004;28;20369;-41
2023/12/17 03:47:44;;;;;;;25.00;13.98;;;;;;;5.07;100.00;102456.50;5110771;28;20075;-42
2023/12/17 03:50:14;;;;;;;26.88;13.70;;;;;;;5.09;100.00;102440.63;5106205;28;20047;-42
2023/12/17 03:52:43;;;;;;;22.40;13.45;;;;;;;5.06;100.00;102438.88;5093007;28;20052;-42
2023/12/17 03:55:11;;;;;;;24.40;13.65;;;;;;;4.95;100.00;102435.38;5111948;28;20083;-43
2023/12/17 03:57:39;;;;;;;26.23;14.57;;;;;;;4.87;100.00;102435.38;5110014;28;20083;-42
2023/12/17 04:00:10;;;;;;;24.52;13.30;;;;;;;4.80;100.00;102424.81;5100739;28;20147;-42
2023/12/17 04:02:39;;;;;;;25.83;14.32;;;;;;;4.84;100.00;102431.88;5110804;28;20048;-43
2023/12/17 04:05:08;;;;;;;23.55;13.70;;;;;;;4.75;100.00;102443.34;5110669;28;20415;-41
2023/12/17 04:07:38;;;;;;;25.80;13.50;;;;;;;4.71;100.00;102440.69;5097975;28;20052;-41
2023/12/17 04:10:08;;;;;;;27.88;14.35;;;;;;;4.79;100.00;102444.22;5090470;28;20454;-41
2023/12/17 04:12:36;;;;;;;27.38;14.45;;;;;;;4.68;100.00;102440.69;5090518;28;20068;-42
2023/12/17 04:15:05;;;;;;;24.20;13.57;;;;;;;4.56;100.00;102429.25;5090358;28;20101;-42
2023/12/17 04:17:34;;;;;;;24.90;14.00;;;;;;;4.57;100.00;102424.84;5093922;28;20489;-42
2023/12/17 04:20:02;;;;;;;24.27;13.52;;;;;;;4.54;100.00;102428.41;5114709;28;20140;-43
2023/12/17 04:22:31;;;;;;;24.25;14.07;;;;;;;4.56;100.00;102420.47;5115227;28;20442;-41
2023/12/17 04:25:01;;;;;;;25.50;14.32;;;;;;;4.46;100.00;102424.88;5109373;28;20068;-41
2023/12/17 04:27:29;;;;;;;26.98;14.40;;;;;;;4.41;100.00;102426.63;5102678;28;20096;-42
2023/12/17 04:29:57;;;;;;;28.25;15.05;;;;;;;4.45;100.00;102425.75;5114421;28;20046;-42
2023/12/17 04:32:25;;;;;;;24.95;14.15;;;;;;;4.43;100.00;102426.59;5114411;28;20047;-42
2023/12/17 04:34:55;;;;;;;30.95;14.60;;;;;;;4.47;100.00;102438.97;5097071;28;20405;-42
2023/12/17 04:37:24;;;;;;;30.13;14.85;;;;;;;4.54;100.00;102443.38;5095252;28;20048;-42
2023/12/17 04:39:52;;;;;;;25.80;13.85;;;;;;;4.57;100.00;102444.25;5105873;28;20058;-43
2023/12/17 04:42:22;;;;;;;23.52;13.60;;;;;;;4.52;100.00;102443.34;5093655;28;20083;-42
2023/12/17 04:44:50;;;;;;;24.63;13.32;;;;;;;4.53;100.00;102436.28;5093504;28;20697;-41
2023/12/17 04:47:19;;;;;;;24.27;12.82;;;;;;;4.52;100.00;102431.91;5097557;28;20048;-42
2023/12/17 04:49:47;;;;;;;23.13;12.35;;;;;;;4.52;100.00;102424.84;5113891;27;20079;-42
2023/12/17 04:52:16;;;;;;;23.42;12.15;;;;;;;4.54;100.00;102427.50;5113716;27;20101;-42
2023/12/17 04:54:44;;;;;;;21.50;12.02;;;;;;;4.56;100.00;102421.34;5113596;28;20075;-43
2023/12/17 04:57:12;;;;;;;23.95;11.07;;;;;;;4.51;100.00;102422.22;5114236;28;20048;-43
2023/12/17 04:59:42;;;;;;;19.20;10.55;;;;;;;4.54;100.00;102428.41;5114483;28;20048;-42
2023/12/17 05:02:10;;;;;;;19.38;10.27;;;;;;;4.54;100.00;102436.31;5114074;28;20047;-43
2023/12/17 05:04:38;;;;;;;19.48;9.82;;;;;;;4.60;100.00;102438.94;5113533;27;20052;-42
2023/12/17 05:07:07;;;;;;;18.23;9.35;;;;;;;4.66;100.00;102434.53;5105723;28;20090;-41
2023/12/17 05:09:35;;;;;;;19.98;9.68;;;;;;;4.67;100.00;102434.53;5092842;28;20480;-43
2023/12/17 05:12:04;;;;;;;17.52;8.73;;;;;;;4.69;100.00;102437.19;5106554;28;20054;-43
2023/12/17 05:14:32;;;;;;;16.67;8.85;;;;;;;4.73;100.00;102447.75;5113673;28;20054;-41
2023/12/17 05:17:02;;;;;;;15.93;9.48;;;;;;;4.75;100.00;102442.47;5113292;28;20530;-42
2023/12/17 05:19:31;;;;;;;17.33;8.88;;;;;;;4.79;100.00;102439.81;5104873;28;20131;-42
2023/12/17 05:22:00;;;;;;;14.18;8.20;;;;;;;4.67;100.00;102445.13;5113306;28;20043;-42
2023/12/17 05:24:28;;;;;;;16.30;8.38;;;;;;;4.70;100.00;102446.88;5113112;28;20123;-42
2023/12/17 05:26:58;;;;;;;16.58;8.10;;;;;;;4.69;100.00;102455.69;5100333;28;20054;-41
2023/12/17 05:29:26;;;;;;;17.42;8.68;;;;;;;4.78;100.00;102445.09;5091994;28;20427;-41
2023/12/17 05:31:55;;;;;;;19.00;8.95;;;;;;;4.77;100.00;102451.28;5094455;28;20123;-44
2023/12/17 05:34:27;;;;;;;15.48;7.88;;;;;;;4.80;100.00;102446.84;5112785;27;20551;-41
2023/12/17 05:36:55;;;;;;;16.75;9.00;;;;;;;4.75;100.00;102442.47;5108535;28;20048;-42
2023/12/17 05:39:24;;;;;;;17.52;8.63;;;;;;;4.79;100.00;102453.03;5098013;28;20043;-42
2023/12/17 05:41:52;;;;;;;16.35;8.57;;;;;;;4.75;100.00;102453.91;5092701;28;20142;-41
2023/12/17 05:44:22;;;;;;;14.13;8.07;;;;;;;4.72;100.00;102463.59;5092322;28;20040;-45
2023/12/17 05:46:50;;;;;;;14.90;7.60;;;;;;;4.66;100.00;102469.78;5100497;28;20094;-43
2023/12/17 05:49:18;;;;;;;18.83;8.52;;;;;;;4.52;100.00;102464.50;5109353;28;20047;-41
2023/12/17 05:51:49;;;;;;;19.52;9.02;;;;;;;4.54;100.00;102465.41;5095601;28;20092;-41
2023/12/17 05:54:20;;;;;;;14.93;8.63;;;;;;;4.59;100.00;102460.09;5112463;28;20047;-42
2023/12/17 05:56:48;;;;;;;21.33;9.02;;;;;;;4.65;100.00;102446.00;5112637;28;20445;-41
2023/12/17 05:59:17;;;;;;;15.20;8.10;;;;;;;4.62;100.00;102436.28;5101852;28;20383;-42
2023/12/17 06:01:45;;;;;;;17.73;7.53;;;;;;;4.60;100.00;102428.38;5093969;28;20048;-42
2023/12/17 06:04:13;;;;;;;15.43;8.27;;;;;;;4.60;100.00;102423.09;5112471;28;20051;-41
2023/12/17 06:06:41;;;;;;;15.20;8.20;;;;;;;4.54;100.00;102419.59;5112646;28;20050;-41
2023/12/17 06:09:11;;;;;;;14.68;8.07;;;;;;;4.60;100.00;102428.38;5112373;28;20054;-43
2023/12/17 06:11:41;;;;;;;13.50;7.53;;;;;;;4.62;100.00;102424.84;5098327;28;20421;-43
2023/12/17 06:14:11;;;;;;;19.83;8.10;;;;;;;4.66;100.00;102413.41;5091551;28;20080;-41
2023/12/17 06:16:43;;;;;;;15.07;7.50;;;;;;;4.72;100.00;102403.66;5091501;28;20048;-41
2023/12/17 06:19:11;;;;;;;14.05;7.60;;;;;;;4.72;100.00;102400.16;5091735;28;20404;-41
2023/12/17 06:21:40;;;;;;;15.50;7.72;;;;;;;4.67;100.00;102412.50;5107754;28;20481;-42
2023/12/17 06:24:08;;;;;;;15.10;7.70;;;;;;;4.68;100.00;102409.84;5100359;28;20096;-41
2023/12/17 06:26:38;;;;;;;15.50;7.70;;;;;;;4.73;100.00;102402.81;5099892;28;20055;-41
2023/12/17 06:29:12;;;;;;;16.42;7.53;;;;;;;4.69;100.00;102400.16;5101872;28;20427;-41
2023/12/17 06:31:41;;;;;;;16.08;8.27;;;;;;;4.70;100.00;102402.78;5097576;28;20043;-41
2023/12/17 06:34:09;;;;;;;15.60;8.32;;;;;;;4.64;100.00;102392.25;5114354;28;20065;-41
2023/12/17 06:36:38;;;;;;;13.18;7.35;;;;;;;4.72;100.00;102400.16;5093579;28;20075;-42
2023/12/17 06:39:09;;;;;;;14.27;7.57;;;;;;;4.68;100.00;102414.28;5091410;28;20075;-41
2023/12/17 06:41:43;;;;;;;14.95;8.02;;;;;;;4.67;100.00;102408.09;5091134;28;20405;-42
2023/12/17 06:44:12;;;;;;;17.65;7.25;;;;;;;4.55;100.00;102409.00;5091194;28;20111;-40
2023/12/17 06:46:40;;;;;;;15.80;8.07;;;;;;;4.59;100.00;102409.88;5098447;28;20047;-41
2023/12/17 06:49:09;;;;;;;13.45;7.57;;;;;;;4.52;100.00;102408.09;5111519;28;20059;-42
2023/12/17 06:51:39;;;;;;;15.05;8.10;;;;;;;4.53;100.00;102412.50;5111689;28;20345;-42
2023/12/17 06:54:08;;;;;;;13.57;8.18;;;;;;;4.37;100.00;102414.31;5100421;28;20051;-41
2023/12/17 06:56:36;;;;;;;15.50;8.15;;;;;;;4.44;100.00;102410.78;5091342;28;20078;-45
2023/12/17 06:59:06;;;;;;;18.23;8.38;;;;;;;4.52;100.00;102403.69;5099204;28;20428;-41
2023/12/17 07:01:35;;;;;;;15.73;7.93;;;;;;;4.59;100.00;102408.09;5091102;28;20048;-42
2023/12/17 07:04:04;;;;;;;16.52;8.93;;;;;;;4.62;100.00;102398.41;5091062;28;20413;-40
2023/12/17 07:06:33;;;;;;;15.20;8.02;;;;;;;4.57;100.00;102407.22;5103488;28;20468;-42
2023/12/17 07:09:01;;;;;;;14.57;8.25;;;;;;;4.60;100.00;102404.56;5107508;28;20146;-42
2023/12/17 07:11:30;;;;;;;18.35;8.30;;;;;;;4.65;100.00;102396.66;5090968;28;20316;-41
2023/12/17 07:13:59;;;;;;;15.10;8.05;;;;;;;4.72;100.00;102408.06;5091014;28;20483;-42
2023/12/17 07:16:29;;;;;;;13.95;7.55;;;;;;;4.71;100.00;102403.69;5090871;28;20097;-41
2023/12/17 07:18:57;;;;;;;14.63;8.48;;;;;;;4.78;100.00;102405.44;5091037;28;20045;-40
2023/12/17 07:21:26;;;;;;;16.95;8.43;;;;;;;4.75;100.00;102410.75;5090772;28;20048;-43
2023/12/17 07:23:56;;;;;;;14.90;7.80;;;;;;;4.90;100.00;102402.75;5091217;28;20404;-43
2023/12/17 07:26:26;;;;;;;14.77;8.13;;;;;;;5.00;100.00;102396.56;5108811;28;20529;-42
2023/12/17 07:28:54;;;;;;;15.25;8.43;;;;;;;5.00;100.00;102398.31;5111109;28;20048;-42
2023/12/17 07:31:22;;;;;;;16.20;8.75;;;;;;;5.03;100.00;102407.16;5111172;28;20040;-41
2023/12/17 07:33:52;;;;;;;14.50;8.05;;;;;;;5.08;100.00;102400.06;5111138;28;20381;-43
2023/12/17 07:36:20;;;;;;;14.95;8.02;;;;;;;5.20;100.00;102399.13;5100735;28;20051;-41
2023/12/17 07:38:49;;;;;;;15.60;8.50;;;;;;;5.08;100.00;102396.53;5106318;28;20059;-42
2023/12/17 07:41:17;;;;;;;15.50;8.30;;;;;;;5.13;100.00;102403.59;5094781;28;20052;-41
2023/12/17 07:43:46;;;;;;;19.15;8.32;;;;;;;5.21;100.00;102398.28;5090564;28;20048;-41
2023/12/17 07:46:14;;;;;;;15.27;8.07;;;;;;;5.16;100.00;102402.69;5090662;28;20055;-42
2023/12/17 07:48:42;;;;;;;13.60;8.30;;;;;;;5.21;100.00;102405.28;5091532;28;20048;-41
2023/12/17 07:51:12;;;;;;;14.98;7.75;;;;;;;5.27;100.00;102405.28;5109983;28;20083;-41
2023/12/17 07:53:41;;;;;;;17.13;7.85;;;;;;;5.26;100.00;102408.81;5100534;27;20130;-41
2023/12/17 07:56:10;;;;;;;17.67;7.95;;;;;;;5.28;100.00;102412.34;5101401;28;20124;-43
2023/12/17 07:58:39;;;;;;;12.93;7.13;;;;;;;5.32;100.00;102406.16;5100776;28;20196;-42
2023/12/17 08:01:09;;;;;;;15.35;7.43;;;;;;;5.31;100.00;102407.06;5100810;28;20036;-41
2023/12/17 08:03:38;;;;;;;14.00;7.90;;;;;;;5.44;100.00;102421.97;5099218;28;20436;-41
2023/12/17 08:06:07;;;;;;;14.02;7.63;;;;;;;5.54;100.00;102409.56;5101633;28;20555;-43
2023/12/17 08:08:37;;;;;;;18.10;7.93;;;;;;;5.68;100.00;102407.72;5103279;28;20048;-41
2023/12/17 08:11:05;;;;;;;16.45;8.30;;;;;;;5.74;100.00;102416.50;5096120;27;20063;-41
2023/12/17 08:13:34;;;;;;;15.68;7.78;;;;;;;5.81;100.00;102421.78;5086169;28;20729;-41
2023/12/17 08:16:02;;;;;;;14.40;7.97;;;;;;;5.75;100.00;102426.22;5108100;28;20040;-40
2023/12/17 08:18:31;;;;;;;14.13;7.70;;;;;;;5.85;100.00;102426.16;5100127;28;20122;-41
2023/12/17 08:21:00;;;;;;;15.23;7.95;;;;;;;5.95;100.00;102422.59;5094098;28;20051;-42
2023/12/17 08:23:29;;;;;;;15.30;7.70;;;;;;;5.99;100.00;102430.53;5093922;28;20564;-42
2023/12/17 08:25:58;;;;;;;14.40;7.97;;;;;;;6.09;100.00;102434.00;5094780;28;20135;-42
2023/12/17 08:28:27;;;;;;;14.27;7.82;;;;;;;6.16;100.00;102438.34;5095724;28;20050;-42
2023/12/17 08:30:55;;;;;;;16.45;8.45;;;;;;;5.84;100.00;102433.22;5102402;28;20481;-42
2023/12/17 08:33:23;;;;;;;15.95;7.70;;;;;;;5.83;100.00;102442.06;5100967;28;20050;-41
2023/12/17 08:35:52;;;;;;;15.55;8.30;;;;;;;5.61;100.00;102438.66;5102210;28;20044;-42
2023/12/17 08:38:20;;;;;;;16.17;8.75;;;;;;;5.53;100.00;102443.13;5100959;28;20040;-41
2023/12/17 08:40:48;;;;;;;18.60;9.25;;;;;;;5.56;100.00;102455.44;5101129;28;20040;-43
2023/12/17 08:43:18;;;;;;;20.10;9.82;;;;;;;5.73;100.00;102454.47;5099703;28;20048;-42
2023/12/17 08:45:47;;;;;;;19.58;9.38;;;;;;;5.84;100.00;102456.19;5098993;28;20035;-40
2023/12/17 08:48:15;;;;;;;18.98;9.38;;;;;;;5.79;100.00;102458.88;5100172;28;20557;-44
2023/12/17 08:50:44;;;;;;;17.35;9.43;;;;;;;5.87;100.00;102457.03;5098746;28;20139;-40
2023/12/17 08:53:12;;;;;;;17.75;8.98;;;;;;;5.94;100.00;102464.09;5109852;28;20047;-42
2023/12/17 08:55:40;;;;;;;20.05;8.75;;;;;;;5.95;100.00;102463.22;5096845;28;20044;-42
2023/12/17 08:58:09;;;;;;;15.32;8.77;;;;;;;6.06;100.00;102451.66;5096979;28;20036;-40
2023/12/17 09:00:40;;;;;;;17.35;8.90;;;;;;;5.96;100.00;102454.38;5101647;27;20136;-41
2023/12/17 09:03:08;;;;;;;17.75;9.38;;;;;;;6.02;100.00;102453.47;5099421;28;20044;-42
2023/12/17 09:05:37;;;;;;;18.10;10.30;;;;;;;5.97;100.00;102442.00;5099885;28;20040;-41
2023/12/17 09:08:05;;;;;;;21.90;11.48;;;;;;;5.90;100.00;102443.84;5102435;28;20150;-42
2023/12/17 09:10:34;;;;;;;17.65;9.50;;;;;;;5.89;100.00;102439.41;5102468;28;20158;-40
2023/12/17 09:13:03;;;;;;;15.23;8.82;;;;;;;5.93;100.00;102442.94;5103216;28;20210;-41
2023/12/17 09:15:31;;;;;;;18.40;9.75;;;;;;;5.94;100.00;102437.63;5097560;28;20072;-42
2023/12/17 09:18:01;;;;;;;16.65;9.48;;;;;;;5.97;100.00;102442.88;5099456;28;20040;-41
2023/12/17 09:20:30;;;;;;;16.35;8.88;;;;;;;5.96;100.00;102434.94;5100818;28;20048;-41
2023/12/17 09:22:58;;;;;;;20.00;9.48;;;;;;;5.97;100.00;102436.72;5100590;28;20392;-41
2023/12/17 09:25:26;;;;;;;17.33;9.23;;;;;;;6.07;100.00;102438.41;5094538;28;20052;-44
2023/12/17 09:27:55;;;;;;;15.40;9.20;;;;;;;6.18;100.00;102441.88;5096203;28;20400;-41
2023/12/17 09:30:24;;;;;;;19.73;10.00;;;;;;;6.23;100.00;102432.13;5096882;28;20493;-43
2023/12/17 09:32:52;;;;;;;22.27;9.50;;;;;;;6.34;100.00;102431.16;5102838;28;20670;-43
2023/12/17 09:35:22;;;;;;;23.45;10.13;;;;;;;6.47;100.00;102425.75;5096664;28;20514;-43
2023/12/17 09:37:51;;;;;;;19.67;9.63;;;;;;;6.64;100.00;102420.28;5095710;28;20493;-43
2023/12/17 09:40:19;;;;;;;19.60;10.60;;;;;;;6.78;100.00;102420.16;5093073;28;20110;-44
2023/12/17 09:42:52;;;;;;;68.15;32.78;;;;;;;6.83;100.00;102420.97;5101053;28;20070;-40
2023/12/17 09:45:20;;;;;;;153.73;65.05;;;;;;;6.75;100.00;102423.69;5091873;28;20532;-41
2023/12/17 09:47:49;;;;;;;85.90;39.88;;;;;;;6.92;100.00;102423.53;5094024;28;20044;-42
2023/12/17 09:50:18;;;;;;;21.60;11.45;;;;;;;6.84;100.00;102420.06;5101551;28;20170;-41
2023/12/17 09:52:48;;;;;;;17.23;9.10;;;;;;;6.80;100.00;102421.88;5106809;28;20508;-40
2023/12/17 09:55:17;;;;;;;14.57;7.72;;;;;;;6.73;100.00;102414.00;5107472;28;20054;-43
2023/12/17 09:57:45;;;;;;;14.38;7.70;;;;;;;6.82;100.00;102409.47;5091193;28;20054;-42
2023/12/17 10:00:15;;;;;;;13.40;7.50;;;;;;;6.82;100.00;102398.88;5091759;28;20386;-40
2023/12/17 10:02:44;;;;;;;14.15;7.40;;;;;;;7.06;100.00;102399.50;5096161;28;20051;-42
2023/12/17 10:05:12;;;;;;;13.30;7.38;;;;;;;7.04;100.00;102403.94;5108437;28;20079;-42
2023/12/17 10:07:40;;;;;;;12.77;7.15;;;;;;;6.92;100.00;102399.66;5098537;28;20078;-43
2023/12/17 10:10:10;;;;;;;14.57;7.60;;;;;;;6.99;100.00;102411.09;5101545;28;20124;-45
2023/12/17 10:12:39;;;;;;;15.32;7.95;;;;;;;7.09;100.00;102396.81;5099827;28;20055;-44
2023/12/17 10:15:11;;;;;;;15.15;8.00;;;;;;;7.13;100.00;102393.22;5099290;28;20079;-41
2023/12/17 10:17:39;;;;;;;14.40;7.82;;;;;;;7.20;100.00;102391.38;5094665;28;20671;-41
2023/12/17 10:20:08;;;;;;;17.83;9.35;;;;;;;7.18;100.00;102386.09;5112897;28;20512;-41
2023/12/17 10:22:37;;;;;;;16.42;8.05;;;;;;;7.18;100.00;102383.44;5113303;28;20044;-41
2023/12/17 10:25:06;;;;;;;15.48;9.65;;;;;;;7.24;100.00;102372.75;5109745;28;20051;-42
2023/12/17 10:27:38;;;;;;;29.73;14.18;;;;;;;7.72;100.00;102380.91;5094034;28;20050;-41
2023/12/17 10:30:08;;;;;;;19.70;9.85;;;;;;;7.75;100.00;102368.50;5095370;28;20130;-43
2023/12/17 10:32:43;;;;;;;14.63;8.20;;;;;;;7.93;100.00;102366.47;5099078;28;20065;-42
2023/12/17 10:35:12;;;;;;;14.65;7.05;;;;;;;8.06;100.00;102360.03;5097042;28;20052;-41
2023/12/17 10:37:41;;;;;;;14.50;7.60;;;;;;;7.85;100.00;102366.56;5092366;28;20079;-42
2023/12/17 10:40:11;;;;;;;12.45;7.38;;;;;;;7.55;100.00;102364.38;5092460;28;20048;-42
2023/12/17 10:42:42;;;;;;;15.55;8.75;;;;;;;7.66;100.00;102362.44;5093628;28;20048;-40
2023/12/17 10:45:12;;;;;;;14.60;8.52;;;;;;;7.80;100.00;102360.44;5091364;28;20109;-42
2023/12/17 10:47:42;;;;;;;15.00;7.97;;;;;;;7.86;100.00;102359.47;5091128;28;20183;-40
2023/12/17 10:50:12;;;;;;;13.30;7.32;;;;;;;7.63;100.00;102363.38;5090977;28;20361;-40
2023/12/17 10:52:41;;;;;;;12.75;7.47;;;;;;;7.83;100.00;102362.19;5104630;28;20052;-40
2023/12/17 10:55:12;;;;;;;13.13;7.32;;;;;;;7.84;100.00;102359.50;5106840;28;20494;-41
2023/12/17 10:57:47;;;;;;;14.40;8.13;;;;;;;8.02;100.00;102361.88;5090716;28;20073;-40
2023/12/17 11:00:21;;;;;;;13.80;7.78;;;;;;;7.96;100.00;102346.03;5091111;28;20137;-41
2023/12/17 11:02:53;;;;;;;14.35;7.72;;;;;;;7.93;100.00;102342.53;5097919;28;20051;-40
2023/12/17 11:05:21;;;;;;;14.82;7.00;;;;;;;8.03;100.00;102345.03;5105174;28;20047;-42
2023/12/17 11:07:50;;;;;;;14.55;7.90;;;;;;;8.01;100.00;102343.31;5093451;28;20044;-41
2023/12/17 11:10:19;;;;;;;16.13;7.32;;;;;;;8.20;100.00;102358.03;5099267;28;20083;-42
2023/12/17 11:12:49;;;;;;;13.50;7.85;;;;;;;8.11;100.00;102341.38;5103612;28;20040;-42
2023/12/17 11:15:22;;;;;;;15.23;7.45;;;;;;;8.13;100.00;102339.56;5098397;28;20123;-41
2023/12/17 11:17:53;;;;;;;11.18;6.97;;;;;;;8.21;100.00;102341.19;5097568;28;20040;-41
2023/12/17 11:20:32;;;;;;;14.02;7.30;;;;;;;8.34;100.00;102341.84;5101626;28;20067;-41
2023/12/17 11:23:01;;;;;;;13.27;6.93;;;;;;;8.48;100.00;102334.50;5097147;28;20059;-44